RJTH(METAR)
10/23 17:00
RJTH 230800Z 06009KT 9999 FEW045 BKNXXX 18/09 Q1019 RMK A3012=
戻る
トップページへ戻る
IMOC Co,.Ltd.